sensor_id;sensor_type;location;lat;lon;timestamp;P1;durP1;ratioP1;P2;durP2;ratioP2
422;SDS011;198;48.752;9.180;2022-08-18T00:00:26;9.70;;;4.30;;
422;SDS011;198;48.752;9.180;2022-08-18T00:02:51;10.93;;;5.60;;
422;SDS011;198;48.752;9.180;2022-08-18T00:05:18;8.87;;;5.10;;
422;SDS011;198;48.752;9.180;2022-08-18T00:07:45;12.80;;;5.10;;
422;SDS011;198;48.752;9.180;2022-08-18T00:10:10;14.60;;;5.07;;
422;SDS011;198;48.752;9.180;2022-08-18T00:12:38;7.10;;;4.60;;
422;SDS011;198;48.752;9.180;2022-08-18T00:15:08;9.13;;;4.50;;
422;SDS011;198;48.752;9.180;2022-08-18T00:17:37;8.40;;;5.53;;
422;SDS011;198;48.752;9.180;2022-08-18T00:20:04;7.70;;;5.20;;
422;SDS011;198;48.752;9.180;2022-08-18T00:22:31;8.30;;;4.90;;
422;SDS011;198;48.752;9.180;2022-08-18T00:24:57;10.60;;;4.70;;
422;SDS011;198;48.752;9.180;2022-08-18T00:27:24;14.47;;;5.80;;
422;SDS011;198;48.752;9.180;2022-08-18T00:29:52;8.00;;;5.10;;
422;SDS011;198;48.752;9.180;2022-08-18T00:32:21;10.90;;;3.93;;
422;SDS011;198;48.752;9.180;2022-08-18T00:34:48;23.50;;;5.57;;
422;SDS011;198;48.752;9.180;2022-08-18T00:37:15;6.43;;;4.60;;
422;SDS011;198;48.752;9.180;2022-08-18T00:39:40;6.83;;;4.70;;
422;SDS011;198;48.752;9.180;2022-08-18T00:42:26;5.93;;;4.40;;
422;SDS011;198;48.752;9.180;2022-08-18T00:44:53;7.93;;;4.40;;
422;SDS011;198;48.752;9.180;2022-08-18T00:47:19;6.73;;;4.50;;
422;SDS011;198;48.752;9.180;2022-08-18T00:49:45;8.83;;;4.23;;
422;SDS011;198;48.752;9.180;2022-08-18T00:52:15;6.13;;;4.37;;
422;SDS011;198;48.752;9.180;2022-08-18T00:54:42;6.23;;;4.30;;
422;SDS011;198;48.752;9.180;2022-08-18T00:57:12;6.63;;;4.30;;
422;SDS011;198;48.752;9.180;2022-08-18T00:59:44;8.87;;;5.00;;
422;SDS011;198;48.752;9.180;2022-08-18T01:02:19;6.90;;;4.43;;
422;SDS011;198;48.752;9.180;2022-08-18T01:04:50;5.83;;;4.30;;
422;SDS011;198;48.752;9.180;2022-08-18T01:07:39;10.53;;;4.30;;
422;SDS011;198;48.752;9.180;2022-08-18T01:10:10;5.47;;;3.80;;
422;SDS011;198;48.752;9.180;2022-08-18T01:12:54;6.20;;;4.17;;
422;SDS011;198;48.752;9.180;2022-08-18T01:15:21;5.53;;;4.03;;
422;SDS011;198;48.752;9.180;2022-08-18T01:17:49;5.23;;;4.00;;
422;SDS011;198;48.752;9.180;2022-08-18T01:20:42;6.80;;;4.60;;
422;SDS011;198;48.752;9.180;2022-08-18T01:23:37;6.63;;;4.30;;
422;SDS011;198;48.752;9.180;2022-08-18T01:26:03;5.37;;;3.83;;
422;SDS011;198;48.752;9.180;2022-08-18T01:28:31;7.93;;;4.80;;
422;SDS011;198;48.752;9.180;2022-08-18T01:30:59;6.53;;;4.10;;
422;SDS011;198;48.752;9.180;2022-08-18T01:33:27;6.00;;;4.33;;
422;SDS011;198;48.752;9.180;2022-08-18T01:36:08;7.57;;;4.10;;
422;SDS011;198;48.752;9.180;2022-08-18T01:38:40;6.13;;;4.23;;
422;SDS011;198;48.752;9.180;2022-08-18T01:41:07;5.77;;;4.23;;
422;SDS011;198;48.752;9.180;2022-08-18T01:43:33;6.70;;;4.37;;
422;SDS011;198;48.752;9.180;2022-08-18T01:46:00;7.03;;;4.20;;
422;SDS011;198;48.752;9.180;2022-08-18T01:48:28;7.90;;;4.10;;
422;SDS011;198;48.752;9.180;2022-08-18T01:50:58;5.20;;;3.67;;
422;SDS011;198;48.752;9.180;2022-08-18T01:53:25;7.80;;;4.43;;
422;SDS011;198;48.752;9.180;2022-08-18T01:55:51;10.73;;;4.73;;
422;SDS011;198;48.752;9.180;2022-08-18T01:58:17;10.03;;;3.80;;
422;SDS011;198;48.752;9.180;2022-08-18T02:00:43;6.43;;;4.20;;
422;SDS011;198;48.752;9.180;2022-08-18T02:03:10;7.53;;;4.90;;
422;SDS011;198;48.752;9.180;2022-08-18T02:05:45;8.70;;;5.20;;
422;SDS011;198;48.752;9.180;2022-08-18T02:08:14;5.80;;;4.30;;
422;SDS011;198;48.752;9.180;2022-08-18T02:10:40;8.23;;;4.97;;
422;SDS011;198;48.752;9.180;2022-08-18T02:13:06;6.50;;;4.63;;
422;SDS011;198;48.752;9.180;2022-08-18T02:15:33;6.07;;;4.40;;
422;SDS011;198;48.752;9.180;2022-08-18T02:17:59;4.87;;;3.53;;
422;SDS011;198;48.752;9.180;2022-08-18T02:20:24;6.50;;;4.67;;
422;SDS011;198;48.752;9.180;2022-08-18T02:22:50;7.37;;;4.63;;
422;SDS011;198;48.752;9.180;2022-08-18T02:25:16;5.50;;;4.10;;
422;SDS011;198;48.752;9.180;2022-08-18T02:27:42;5.20;;;4.23;;
422;SDS011;198;48.752;9.180;2022-08-18T02:30:11;10.73;;;4.27;;
422;SDS011;198;48.752;9.180;2022-08-18T02:32:39;9.40;;;4.80;;
422;SDS011;198;48.752;9.180;2022-08-18T02:35:05;6.70;;;4.37;;
422;SDS011;198;48.752;9.180;2022-08-18T02:37:31;6.00;;;4.23;;
422;SDS011;198;48.752;9.180;2022-08-18T02:39:57;8.43;;;4.87;;
422;SDS011;198;48.752;9.180;2022-08-18T02:42:23;10.90;;;4.73;;
422;SDS011;198;48.752;9.180;2022-08-18T02:44:48;7.00;;;4.53;;
422;SDS011;198;48.752;9.180;2022-08-18T02:47:14;7.00;;;4.30;;
422;SDS011;198;48.752;9.180;2022-08-18T02:49:44;5.77;;;4.60;;
422;SDS011;198;48.752;9.180;2022-08-18T02:52:09;9.33;;;4.53;;
422;SDS011;198;48.752;9.180;2022-08-18T02:54:35;9.20;;;4.60;;
422;SDS011;198;48.752;9.180;2022-08-18T02:57:04;8.37;;;5.20;;
422;SDS011;198;48.752;9.180;2022-08-18T02:59:34;5.93;;;4.20;;
422;SDS011;198;48.752;9.180;2022-08-18T03:02:02;9.00;;;4.90;;
422;SDS011;198;48.752;9.180;2022-08-18T03:04:30;7.00;;;4.73;;
422;SDS011;198;48.752;9.180;2022-08-18T03:06:57;7.67;;;4.70;;
422;SDS011;198;48.752;9.180;2022-08-18T03:09:24;5.80;;;4.23;;
422;SDS011;198;48.752;9.180;2022-08-18T03:11:50;7.17;;;4.30;;
422;SDS011;198;48.752;9.180;2022-08-18T03:14:17;7.73;;;4.80;;
422;SDS011;198;48.752;9.180;2022-08-18T03:16:44;10.83;;;6.00;;
422;SDS011;198;48.752;9.180;2022-08-18T03:19:11;5.97;;;4.10;;
422;SDS011;198;48.752;9.180;2022-08-18T03:21:42;6.67;;;4.43;;
422;SDS011;198;48.752;9.180;2022-08-18T03:24:09;7.03;;;4.60;;
422;SDS011;198;48.752;9.180;2022-08-18T03:26:38;5.60;;;4.17;;
422;SDS011;198;48.752;9.180;2022-08-18T03:29:05;8.20;;;4.80;;
422;SDS011;198;48.752;9.180;2022-08-18T03:31:31;7.73;;;4.47;;
422;SDS011;198;48.752;9.180;2022-08-18T03:33:57;6.30;;;4.20;;
422;SDS011;198;48.752;9.180;2022-08-18T03:36:25;7.63;;;5.20;;
422;SDS011;198;48.752;9.180;2022-08-18T03:38:53;8.00;;;4.90;;
422;SDS011;198;48.752;9.180;2022-08-18T03:41:20;11.10;;;5.20;;
422;SDS011;198;48.752;9.180;2022-08-18T03:43:48;11.53;;;5.37;;
422;SDS011;198;48.752;9.180;2022-08-18T03:46:15;6.60;;;4.40;;
422;SDS011;198;48.752;9.180;2022-08-18T03:48:42;7.93;;;5.30;;
422;SDS011;198;48.752;9.180;2022-08-18T03:51:17;14.87;;;5.40;;
422;SDS011;198;48.752;9.180;2022-08-18T03:53:49;7.87;;;5.33;;
422;SDS011;198;48.752;9.180;2022-08-18T03:56:16;9.80;;;4.17;;
422;SDS011;198;48.752;9.180;2022-08-18T03:58:44;9.43;;;6.30;;
422;SDS011;198;48.752;9.180;2022-08-18T04:01:15;12.60;;;4.73;;
422;SDS011;198;48.752;9.180;2022-08-18T04:03:45;10.47;;;4.57;;
422;SDS011;198;48.752;9.180;2022-08-18T04:06:19;8.93;;;4.87;;
422;SDS011;198;48.752;9.180;2022-08-18T04:08:46;7.00;;;4.63;;
422;SDS011;198;48.752;9.180;2022-08-18T04:11:15;6.73;;;4.67;;
422;SDS011;198;48.752;9.180;2022-08-18T04:13:41;6.40;;;4.47;;
422;SDS011;198;48.752;9.180;2022-08-18T04:16:07;8.53;;;4.60;;
422;SDS011;198;48.752;9.180;2022-08-18T04:18:33;8.80;;;5.17;;
422;SDS011;198;48.752;9.180;2022-08-18T04:21:02;6.90;;;5.73;;
422;SDS011;198;48.752;9.180;2022-08-18T04:23:31;9.57;;;5.73;;
422;SDS011;198;48.752;9.180;2022-08-18T04:26:04;8.10;;;4.93;;
422;SDS011;198;48.752;9.180;2022-08-18T04:28:31;10.50;;;4.83;;
422;SDS011;198;48.752;9.180;2022-08-18T04:30:57;12.20;;;5.50;;
422;SDS011;198;48.752;9.180;2022-08-18T04:33:24;10.03;;;5.57;;
422;SDS011;198;48.752;9.180;2022-08-18T04:35:51;7.60;;;4.77;;
422;SDS011;198;48.752;9.180;2022-08-18T04:38:17;6.73;;;4.50;;
422;SDS011;198;48.752;9.180;2022-08-18T04:40:42;6.43;;;4.63;;
422;SDS011;198;48.752;9.180;2022-08-18T04:43:08;7.67;;;5.13;;
422;SDS011;198;48.752;9.180;2022-08-18T04:45:40;9.83;;;5.10;;
422;SDS011;198;48.752;9.180;2022-08-18T04:48:08;8.30;;;4.30;;
422;SDS011;198;48.752;9.180;2022-08-18T04:50:35;6.60;;;4.50;;
422;SDS011;198;48.752;9.180;2022-08-18T04:53:01;9.87;;;5.03;;
422;SDS011;198;48.752;9.180;2022-08-18T04:55:54;8.20;;;6.10;;
422;SDS011;198;48.752;9.180;2022-08-18T04:58:21;9.60;;;5.87;;
422;SDS011;198;48.752;9.180;2022-08-18T05:00:55;13.77;;;5.47;;
422;SDS011;198;48.752;9.180;2022-08-18T05:03:22;7.30;;;4.83;;
422;SDS011;198;48.752;9.180;2022-08-18T05:05:52;7.30;;;5.30;;
422;SDS011;198;48.752;9.180;2022-08-18T05:08:18;10.37;;;5.63;;
422;SDS011;198;48.752;9.180;2022-08-18T05:10:43;8.50;;;4.80;;
422;SDS011;198;48.752;9.180;2022-08-18T05:13:09;7.47;;;5.00;;
422;SDS011;198;48.752;9.180;2022-08-18T05:15:34;7.00;;;5.07;;
422;SDS011;198;48.752;9.180;2022-08-18T05:18:01;9.30;;;5.60;;
422;SDS011;198;48.752;9.180;2022-08-18T05:20:28;8.60;;;4.90;;
422;SDS011;198;48.752;9.180;2022-08-18T05:22:53;12.20;;;5.17;;
422;SDS011;198;48.752;9.180;2022-08-18T05:25:19;9.40;;;5.00;;
422;SDS011;198;48.752;9.180;2022-08-18T05:27:45;7.40;;;5.00;;
422;SDS011;198;48.752;9.180;2022-08-18T05:30:11;9.00;;;5.30;;
422;SDS011;198;48.752;9.180;2022-08-18T05:32:40;9.47;;;5.37;;
422;SDS011;198;48.752;9.180;2022-08-18T05:35:11;7.13;;;4.93;;
422;SDS011;198;48.752;9.180;2022-08-18T05:40:16;7.30;;;4.87;;
422;SDS011;198;48.752;9.180;2022-08-18T05:42:43;7.40;;;5.13;;
422;SDS011;198;48.752;9.180;2022-08-18T05:45:11;5.97;;;4.20;;
422;SDS011;198;48.752;9.180;2022-08-18T05:47:39;8.73;;;4.50;;
422;SDS011;198;48.752;9.180;2022-08-18T05:50:09;6.80;;;5.27;;
422;SDS011;198;48.752;9.180;2022-08-18T05:55:23;6.33;;;4.70;;
422;SDS011;198;48.752;9.180;2022-08-18T05:58:23;7.80;;;5.53;;
422;SDS011;198;48.752;9.180;2022-08-18T06:01:00;8.20;;;5.13;;
422;SDS011;198;48.752;9.180;2022-08-18T06:03:39;7.10;;;5.00;;
422;SDS011;198;48.752;9.180;2022-08-18T06:06:24;8.90;;;5.50;;
422;SDS011;198;48.752;9.180;2022-08-18T06:09:36;8.10;;;5.40;;
422;SDS011;198;48.752;9.180;2022-08-18T06:11:48;14.63;;;5.77;;
422;SDS011;198;48.752;9.180;2022-08-18T06:14:14;6.10;;;4.23;;
422;SDS011;198;48.752;9.180;2022-08-18T06:16:47;8.30;;;5.20;;
422;SDS011;198;48.752;9.180;2022-08-18T06:22:25;7.40;;;5.30;;
422;SDS011;198;48.752;9.180;2022-08-18T06:25:20;7.37;;;4.80;;
422;SDS011;198;48.752;9.180;2022-08-18T06:28:05;6.60;;;4.47;;
422;SDS011;198;48.752;9.180;2022-08-18T06:35:58;7.33;;;4.73;;
422;SDS011;198;48.752;9.180;2022-08-18T06:38:55;7.80;;;4.63;;
422;SDS011;198;48.752;9.180;2022-08-18T06:41:44;6.90;;;4.07;;
422;SDS011;198;48.752;9.180;2022-08-18T06:44:20;13.77;;;5.13;;
422;SDS011;198;48.752;9.180;2022-08-18T06:49:54;9.07;;;4.83;;
422;SDS011;198;48.752;9.180;2022-08-18T06:52:31;9.47;;;5.27;;
422;SDS011;198;48.752;9.180;2022-08-18T06:55:00;8.80;;;5.53;;
422;SDS011;198;48.752;9.180;2022-08-18T06:57:51;9.40;;;6.03;;
422;SDS011;198;48.752;9.180;2022-08-18T07:00:22;5.83;;;4.37;;
422;SDS011;198;48.752;9.180;2022-08-18T07:02:50;8.40;;;5.10;;
422;SDS011;198;48.752;9.180;2022-08-18T07:05:23;8.67;;;5.60;;
422;SDS011;198;48.752;9.180;2022-08-18T07:10:36;9.47;;;4.80;;
422;SDS011;198;48.752;9.180;2022-08-18T07:13:23;9.83;;;4.77;;
422;SDS011;198;48.752;9.180;2022-08-18T07:15:51;9.50;;;6.03;;
422;SDS011;198;48.752;9.180;2022-08-18T07:18:24;5.67;;;4.60;;
422;SDS011;198;48.752;9.180;2022-08-18T07:20:54;7.63;;;5.23;;
422;SDS011;198;48.752;9.180;2022-08-18T07:23:23;9.93;;;5.50;;
422;SDS011;198;48.752;9.180;2022-08-18T07:25:59;10.20;;;5.13;;
422;SDS011;198;48.752;9.180;2022-08-18T07:28:44;9.10;;;4.23;;
422;SDS011;198;48.752;9.180;2022-08-18T07:33:49;7.60;;;4.73;;
422;SDS011;198;48.752;9.180;2022-08-18T07:36:19;9.33;;;5.50;;
422;SDS011;198;48.752;9.180;2022-08-18T07:38:50;8.57;;;5.07;;
422;SDS011;198;48.752;9.180;2022-08-18T07:41:22;7.03;;;5.13;;
422;SDS011;198;48.752;9.180;2022-08-18T07:44:13;10.00;;;4.83;;
422;SDS011;198;48.752;9.180;2022-08-18T07:46:59;6.27;;;4.50;;
422;SDS011;198;48.752;9.180;2022-08-18T07:49:31;5.53;;;5.00;;
422;SDS011;198;48.752;9.180;2022-08-18T07:52:02;10.43;;;5.50;;
422;SDS011;198;48.752;9.180;2022-08-18T08:07:34;6.07;;;4.43;;
422;SDS011;198;48.752;9.180;2022-08-18T08:10:31;5.70;;;4.07;;
422;SDS011;198;48.752;9.180;2022-08-18T08:13:10;5.13;;;3.93;;
422;SDS011;198;48.752;9.180;2022-08-18T08:15:42;6.97;;;4.30;;
422;SDS011;198;48.752;9.180;2022-08-18T08:18:31;7.20;;;4.70;;
422;SDS011;198;48.752;9.180;2022-08-18T08:21:08;5.67;;;4.00;;
422;SDS011;198;48.752;9.180;2022-08-18T08:26:28;7.70;;;4.80;;
422;SDS011;198;48.752;9.180;2022-08-18T08:31:37;7.20;;;4.40;;
422;SDS011;198;48.752;9.180;2022-08-18T08:34:08;14.63;;;6.10;;
422;SDS011;198;48.752;9.180;2022-08-18T08:36:40;7.20;;;4.97;;
422;SDS011;198;48.752;9.180;2022-08-18T08:39:14;12.33;;;5.20;;
422;SDS011;198;48.752;9.180;2022-08-18T08:41:53;7.43;;;5.23;;
422;SDS011;198;48.752;9.180;2022-08-18T08:44:33;7.30;;;5.20;;
422;SDS011;198;48.752;9.180;2022-08-18T08:47:16;13.63;;;5.03;;
422;SDS011;198;48.752;9.180;2022-08-18T08:49:50;8.37;;;5.00;;
422;SDS011;198;48.752;9.180;2022-08-18T08:52:29;5.80;;;4.20;;
422;SDS011;198;48.752;9.180;2022-08-18T08:55:10;14.20;;;5.10;;
422;SDS011;198;48.752;9.180;2022-08-18T08:57:40;5.10;;;4.43;;
422;SDS011;198;48.752;9.180;2022-08-18T09:00:11;8.30;;;5.37;;
422;SDS011;198;48.752;9.180;2022-08-18T09:03:00;6.53;;;4.80;;
422;SDS011;198;48.752;9.180;2022-08-18T09:05:38;10.00;;;5.60;;
422;SDS011;198;48.752;9.180;2022-08-18T09:08:26;9.40;;;6.33;;
422;SDS011;198;48.752;9.180;2022-08-18T09:13:59;7.60;;;5.47;;
422;SDS011;198;48.752;9.180;2022-08-18T09:16:45;9.87;;;5.50;;
422;SDS011;198;48.752;9.180;2022-08-18T09:22:12;10.73;;;6.40;;
422;SDS011;198;48.752;9.180;2022-08-18T09:24:50;10.93;;;5.40;;
422;SDS011;198;48.752;9.180;2022-08-18T09:27:31;6.70;;;4.70;;
422;SDS011;198;48.752;9.180;2022-08-18T09:30:05;8.80;;;4.60;;
422;SDS011;198;48.752;9.180;2022-08-18T09:32:36;7.67;;;5.60;;
422;SDS011;198;48.752;9.180;2022-08-18T09:35:17;11.77;;;6.00;;
422;SDS011;198;48.752;9.180;2022-08-18T09:38:15;9.63;;;5.60;;
422;SDS011;198;48.752;9.180;2022-08-18T09:41:06;8.10;;;4.37;;
422;SDS011;198;48.752;9.180;2022-08-18T09:51:50;7.33;;;4.83;;
422;SDS011;198;48.752;9.180;2022-08-18T09:57:28;11.33;;;6.77;;
422;SDS011;198;48.752;9.180;2022-08-18T10:13:32;7.47;;;4.77;;
422;SDS011;198;48.752;9.180;2022-08-18T10:21:11;5.70;;;3.90;;
422;SDS011;198;48.752;9.180;2022-08-18T10:29:02;4.33;;;4.10;;
422;SDS011;198;48.752;9.180;2022-08-18T10:37:20;6.40;;;4.40;;
422;SDS011;198;48.752;9.180;2022-08-18T10:40:03;5.20;;;4.10;;
422;SDS011;198;48.752;9.180;2022-08-18T10:42:44;7.23;;;4.53;;
422;SDS011;198;48.752;9.180;2022-08-18T10:45:34;7.20;;;4.67;;
422;SDS011;198;48.752;9.180;2022-08-18T10:48:04;9.87;;;5.30;;
422;SDS011;198;48.752;9.180;2022-08-18T10:59:02;5.03;;;4.67;;
422;SDS011;198;48.752;9.180;2022-08-18T11:04:34;4.80;;;4.03;;
422;SDS011;198;48.752;9.180;2022-08-18T11:07:10;5.95;;;3.80;;
422;SDS011;198;48.752;9.180;2022-08-18T11:09:37;6.47;;;5.53;;
422;SDS011;198;48.752;9.180;2022-08-18T11:12:04;5.63;;;4.43;;
422;SDS011;198;48.752;9.180;2022-08-18T11:14:41;6.65;;;4.88;;
422;SDS011;198;48.752;9.180;2022-08-18T11:19:59;8.07;;;4.70;;
422;SDS011;198;48.752;9.180;2022-08-18T11:22:27;4.63;;;4.20;;
422;SDS011;198;48.752;9.180;2022-08-18T11:24:55;12.77;;;5.53;;
422;SDS011;198;48.752;9.180;2022-08-18T11:27:22;7.67;;;5.63;;
422;SDS011;198;48.752;9.180;2022-08-18T11:30:03;10.10;;;5.67;;
422;SDS011;198;48.752;9.180;2022-08-18T11:32:30;5.87;;;5.20;;
422;SDS011;198;48.752;9.180;2022-08-18T11:35:00;12.13;;;6.63;;
422;SDS011;198;48.752;9.180;2022-08-18T11:40:28;19.43;;;7.07;;
422;SDS011;198;48.752;9.180;2022-08-18T11:42:54;10.90;;;6.37;;
422;SDS011;198;48.752;9.180;2022-08-18T11:45:32;9.57;;;6.90;;
422;SDS011;198;48.752;9.180;2022-08-18T11:58:46;6.90;;;5.37;;
422;SDS011;198;48.752;9.180;2022-08-18T12:11:59;10.20;;;6.70;;
422;SDS011;198;48.752;9.180;2022-08-18T12:14:51;10.53;;;6.93;;
422;SDS011;198;48.752;9.180;2022-08-18T12:17:17;9.10;;;5.87;;
422;SDS011;198;48.752;9.180;2022-08-18T12:19:43;11.43;;;6.07;;
422;SDS011;198;48.752;9.180;2022-08-18T12:22:22;8.73;;;5.57;;
422;SDS011;198;48.752;9.180;2022-08-18T12:24:51;7.67;;;4.90;;
422;SDS011;198;48.752;9.180;2022-08-18T12:27:19;10.40;;;4.90;;
422;SDS011;198;48.752;9.180;2022-08-18T12:29:48;7.23;;;5.17;;
422;SDS011;198;48.752;9.180;2022-08-18T12:32:15;10.10;;;6.20;;
422;SDS011;198;48.752;9.180;2022-08-18T12:34:41;9.53;;;5.53;;
422;SDS011;198;48.752;9.180;2022-08-18T12:37:07;7.23;;;5.20;;
422;SDS011;198;48.752;9.180;2022-08-18T12:39:34;7.03;;;5.07;;
422;SDS011;198;48.752;9.180;2022-08-18T12:42:00;6.60;;;4.97;;
422;SDS011;198;48.752;9.180;2022-08-18T12:44:26;10.37;;;5.40;;
422;SDS011;198;48.752;9.180;2022-08-18T12:46:52;5.43;;;4.60;;
422;SDS011;198;48.752;9.180;2022-08-18T12:49:20;7.37;;;5.13;;
422;SDS011;198;48.752;9.180;2022-08-18T12:51:48;5.20;;;4.50;;
422;SDS011;198;48.752;9.180;2022-08-18T12:54:15;4.53;;;4.23;;
422;SDS011;198;48.752;9.180;2022-08-18T12:56:41;4.77;;;4.20;;
422;SDS011;198;48.752;9.180;2022-08-18T12:59:07;5.47;;;4.43;;
422;SDS011;198;48.752;9.180;2022-08-18T13:01:34;4.93;;;4.63;;
422;SDS011;198;48.752;9.180;2022-08-18T13:04:01;6.88;;;4.47;;
422;SDS011;198;48.752;9.180;2022-08-18T13:06:28;9.75;;;4.72;;
422;SDS011;198;48.752;9.180;2022-08-18T13:08:54;5.32;;;4.20;;
422;SDS011;198;48.752;9.180;2022-08-18T13:11:21;7.70;;;5.60;;
422;SDS011;198;48.752;9.180;2022-08-18T13:13:47;6.68;;;4.50;;
422;SDS011;198;48.752;9.180;2022-08-18T13:16:14;7.28;;;4.90;;
422;SDS011;198;48.752;9.180;2022-08-18T13:18:40;5.97;;;4.90;;
422;SDS011;198;48.752;9.180;2022-08-18T13:21:10;6.13;;;4.10;;
422;SDS011;198;48.752;9.180;2022-08-18T13:23:37;4.70;;;4.40;;
422;SDS011;198;48.752;9.180;2022-08-18T13:26:04;10.23;;;4.77;;
422;SDS011;198;48.752;9.180;2022-08-18T13:28:33;9.10;;;4.70;;
422;SDS011;198;48.752;9.180;2022-08-18T13:31:00;7.40;;;4.80;;
422;SDS011;198;48.752;9.180;2022-08-18T13:33:26;7.13;;;4.70;;
422;SDS011;198;48.752;9.180;2022-08-18T13:35:52;6.80;;;4.30;;
422;SDS011;198;48.752;9.180;2022-08-18T13:38:18;6.33;;;3.90;;
422;SDS011;198;48.752;9.180;2022-08-18T13:40:47;5.93;;;4.50;;
422;SDS011;198;48.752;9.180;2022-08-18T13:43:17;5.83;;;4.17;;
422;SDS011;198;48.752;9.180;2022-08-18T13:45:45;10.97;;;5.40;;
422;SDS011;198;48.752;9.180;2022-08-18T13:48:13;8.47;;;4.67;;
422;SDS011;198;48.752;9.180;2022-08-18T13:50:40;4.30;;;4.00;;
422;SDS011;198;48.752;9.180;2022-08-18T13:53:11;7.33;;;4.97;;
422;SDS011;198;48.752;9.180;2022-08-18T13:55:39;8.40;;;4.93;;
422;SDS011;198;48.752;9.180;2022-08-18T13:58:05;9.73;;;5.03;;
422;SDS011;198;48.752;9.180;2022-08-18T14:00:31;4.37;;;4.07;;
422;SDS011;198;48.752;9.180;2022-08-18T14:02:59;8.23;;;5.37;;
422;SDS011;198;48.752;9.180;2022-08-18T14:05:26;4.67;;;4.00;;
422;SDS011;198;48.752;9.180;2022-08-18T14:07:52;7.53;;;4.67;;
422;SDS011;198;48.752;9.180;2022-08-18T14:10:17;5.13;;;3.83;;
422;SDS011;198;48.752;9.180;2022-08-18T14:12:43;11.73;;;5.00;;
422;SDS011;198;48.752;9.180;2022-08-18T14:15:11;3.40;;;3.20;;
422;SDS011;198;48.752;9.180;2022-08-18T14:17:38;8.57;;;5.00;;
422;SDS011;198;48.752;9.180;2022-08-18T14:20:05;4.50;;;4.20;;
422;SDS011;198;48.752;9.180;2022-08-18T14:22:50;9.07;;;4.63;;
422;SDS011;198;48.752;9.180;2022-08-18T14:25:35;5.77;;;4.57;;
422;SDS011;198;48.752;9.180;2022-08-18T14:28:20;4.70;;;4.27;;
422;SDS011;198;48.752;9.180;2022-08-18T14:30:45;11.50;;;5.33;;
422;SDS011;198;48.752;9.180;2022-08-18T14:33:11;5.00;;;4.53;;
422;SDS011;198;48.752;9.180;2022-08-18T14:35:40;6.27;;;4.87;;
422;SDS011;198;48.752;9.180;2022-08-18T14:38:06;6.30;;;5.13;;
422;SDS011;198;48.752;9.180;2022-08-18T14:40:32;6.90;;;5.40;;
422;SDS011;198;48.752;9.180;2022-08-18T14:42:58;7.23;;;4.87;;
422;SDS011;198;48.752;9.180;2022-08-18T14:45:25;10.83;;;5.73;;
422;SDS011;198;48.752;9.180;2022-08-18T14:47:51;8.30;;;5.37;;
422;SDS011;198;48.752;9.180;2022-08-18T14:50:18;5.13;;;4.73;;
422;SDS011;198;48.752;9.180;2022-08-18T14:52:45;6.97;;;5.10;;
422;SDS011;198;48.752;9.180;2022-08-18T14:55:12;8.63;;;5.70;;
422;SDS011;198;48.752;9.180;2022-08-18T14:57:38;8.40;;;5.30;;
422;SDS011;198;48.752;9.180;2022-08-18T15:00:05;9.33;;;5.47;;
422;SDS011;198;48.752;9.180;2022-08-18T15:02:37;9.57;;;5.10;;
422;SDS011;198;48.752;9.180;2022-08-18T15:05:03;5.77;;;4.73;;
422;SDS011;198;48.752;9.180;2022-08-18T15:07:33;5.97;;;4.93;;
422;SDS011;198;48.752;9.180;2022-08-18T15:10:02;7.53;;;5.20;;
422;SDS011;198;48.752;9.180;2022-08-18T15:12:29;7.03;;;4.47;;
422;SDS011;198;48.752;9.180;2022-08-18T15:14:55;5.87;;;5.40;;
422;SDS011;198;48.752;9.180;2022-08-18T15:17:24;7.30;;;5.00;;
422;SDS011;198;48.752;9.180;2022-08-18T15:19:51;6.63;;;5.07;;
422;SDS011;198;48.752;9.180;2022-08-18T15:22:17;8.33;;;5.47;;
422;SDS011;198;48.752;9.180;2022-08-18T15:25:02;7.47;;;5.37;;
422;SDS011;198;48.752;9.180;2022-08-18T15:27:47;6.17;;;4.80;;
422;SDS011;198;48.752;9.180;2022-08-18T15:30:13;21.00;;;5.50;;
422;SDS011;198;48.752;9.180;2022-08-18T15:32:43;5.47;;;5.17;;
422;SDS011;198;48.752;9.180;2022-08-18T15:35:10;7.80;;;5.93;;
422;SDS011;198;48.752;9.180;2022-08-18T15:37:39;5.60;;;5.20;;
422;SDS011;198;48.752;9.180;2022-08-18T15:40:39;9.13;;;5.10;;
422;SDS011;198;48.752;9.180;2022-08-18T15:42:58;10.13;;;5.97;;
422;SDS011;198;48.752;9.180;2022-08-18T15:45:29;8.50;;;5.40;;
422;SDS011;198;48.752;9.180;2022-08-18T15:47:59;10.10;;;5.63;;
422;SDS011;198;48.752;9.180;2022-08-18T15:50:26;8.60;;;5.57;;
422;SDS011;198;48.752;9.180;2022-08-18T15:52:53;8.73;;;5.47;;
422;SDS011;198;48.752;9.180;2022-08-18T15:55:24;23.97;;;6.53;;
422;SDS011;198;48.752;9.180;2022-08-18T15:57:51;7.97;;;5.67;;
422;SDS011;198;48.752;9.180;2022-08-18T16:00:18;12.13;;;7.20;;
422;SDS011;198;48.752;9.180;2022-08-18T16:02:54;9.20;;;5.20;;
422;SDS011;198;48.752;9.180;2022-08-18T16:05:22;6.97;;;5.47;;
422;SDS011;198;48.752;9.180;2022-08-18T16:07:53;8.20;;;6.03;;
422;SDS011;198;48.752;9.180;2022-08-18T16:10:21;7.90;;;5.00;;
422;SDS011;198;48.752;9.180;2022-08-18T16:12:49;9.37;;;6.20;;
422;SDS011;198;48.752;9.180;2022-08-18T16:15:19;10.90;;;5.63;;
422;SDS011;198;48.752;9.180;2022-08-18T16:17:46;8.80;;;5.43;;
422;SDS011;198;48.752;9.180;2022-08-18T16:20:12;7.70;;;5.10;;
422;SDS011;198;48.752;9.180;2022-08-18T16:22:38;8.97;;;5.20;;
422;SDS011;198;48.752;9.180;2022-08-18T16:25:05;7.50;;;5.40;;
422;SDS011;198;48.752;9.180;2022-08-18T16:27:32;7.50;;;5.53;;
422;SDS011;198;48.752;9.180;2022-08-18T16:29:58;9.33;;;6.60;;
422;SDS011;198;48.752;9.180;2022-08-18T16:32:24;7.60;;;5.80;;
422;SDS011;198;48.752;9.180;2022-08-18T16:34:50;7.73;;;5.87;;
422;SDS011;198;48.752;9.180;2022-08-18T16:37:16;6.20;;;5.27;;
422;SDS011;198;48.752;9.180;2022-08-18T16:39:42;9.30;;;6.13;;
422;SDS011;198;48.752;9.180;2022-08-18T16:42:08;9.27;;;5.20;;
422;SDS011;198;48.752;9.180;2022-08-18T16:44:35;8.63;;;5.63;;
422;SDS011;198;48.752;9.180;2022-08-18T16:47:02;8.73;;;5.73;;
422;SDS011;198;48.752;9.180;2022-08-18T16:49:28;9.00;;;5.67;;
422;SDS011;198;48.752;9.180;2022-08-18T16:51:54;9.50;;;6.30;;
422;SDS011;198;48.752;9.180;2022-08-18T16:54:20;8.63;;;6.37;;
422;SDS011;198;48.752;9.180;2022-08-18T16:56:46;9.80;;;6.20;;
422;SDS011;198;48.752;9.180;2022-08-18T16:59:12;9.60;;;6.57;;
422;SDS011;198;48.752;9.180;2022-08-18T17:01:56;10.07;;;6.27;;
422;SDS011;198;48.752;9.180;2022-08-18T17:04:40;16.83;;;7.07;;
422;SDS011;198;48.752;9.180;2022-08-18T17:07:05;9.20;;;6.70;;
422;SDS011;198;48.752;9.180;2022-08-18T17:09:31;11.23;;;5.77;;
422;SDS011;198;48.752;9.180;2022-08-18T17:11:58;10.20;;;6.00;;
422;SDS011;198;48.752;9.180;2022-08-18T17:14:25;7.33;;;6.17;;
422;SDS011;198;48.752;9.180;2022-08-18T17:16:53;7.73;;;5.93;;
422;SDS011;198;48.752;9.180;2022-08-18T17:19:23;10.07;;;6.53;;
422;SDS011;198;48.752;9.180;2022-08-18T17:21:52;9.23;;;7.20;;
422;SDS011;198;48.752;9.180;2022-08-18T17:24:17;10.50;;;6.63;;
422;SDS011;198;48.752;9.180;2022-08-18T17:27:03;9.77;;;6.87;;
422;SDS011;198;48.752;9.180;2022-08-18T17:32:41;10.17;;;6.17;;
422;SDS011;198;48.752;9.180;2022-08-18T17:35:24;7.67;;;6.00;;
422;SDS011;198;48.752;9.180;2022-08-18T17:38:25;8.90;;;5.77;;
422;SDS011;198;48.752;9.180;2022-08-18T17:40:58;8.80;;;6.77;;
422;SDS011;198;48.752;9.180;2022-08-18T17:43:27;9.93;;;7.40;;
422;SDS011;198;48.752;9.180;2022-08-18T17:45:57;17.50;;;6.47;;
422;SDS011;198;48.752;9.180;2022-08-18T17:48:31;14.87;;;6.60;;
422;SDS011;198;48.752;9.180;2022-08-18T17:51:13;12.00;;;6.63;;
422;SDS011;198;48.752;9.180;2022-08-18T17:53:57;14.30;;;7.57;;
422;SDS011;198;48.752;9.180;2022-08-18T17:56:30;14.37;;;7.50;;
422;SDS011;198;48.752;9.180;2022-08-18T17:59:01;11.17;;;7.67;;
422;SDS011;198;48.752;9.180;2022-08-18T18:01:34;17.60;;;9.53;;
422;SDS011;198;48.752;9.180;2022-08-18T18:04:01;13.57;;;9.77;;
422;SDS011;198;48.752;9.180;2022-08-18T18:09:47;13.40;;;8.60;;
422;SDS011;198;48.752;9.180;2022-08-18T18:11:53;13.97;;;8.87;;
422;SDS011;198;48.752;9.180;2022-08-18T18:19:32;16.53;;;10.70;;
422;SDS011;198;48.752;9.180;2022-08-18T18:22:03;17.00;;;10.30;;